sensor_id;sensor_type;location;lat;lon;timestamp;P1;durP1;ratioP1;P2;durP2;ratioP2
3865;SDS011;1948;53.250;10.412;2022-12-19T00:00:23;24.27;;;14.30;;
3865;SDS011;1948;53.250;10.412;2022-12-19T00:02:53;27.80;;;13.53;;
3865;SDS011;1948;53.250;10.412;2022-12-19T00:05:20;25.70;;;13.30;;
3865;SDS011;1948;53.250;10.412;2022-12-19T00:07:50;29.00;;;14.63;;
3865;SDS011;1948;53.250;10.412;2022-12-19T00:10:18;25.03;;;12.83;;
3865;SDS011;1948;53.250;10.412;2022-12-19T00:12:45;28.63;;;13.27;;
3865;SDS011;1948;53.250;10.412;2022-12-19T00:15:12;31.03;;;11.97;;
3865;SDS011;1948;53.250;10.412;2022-12-19T00:17:39;27.87;;;13.13;;
3865;SDS011;1948;53.250;10.412;2022-12-19T00:20:06;29.27;;;13.60;;
3865;SDS011;1948;53.250;10.412;2022-12-19T00:22:36;24.13;;;12.60;;
3865;SDS011;1948;53.250;10.412;2022-12-19T00:25:03;28.07;;;12.60;;
3865;SDS011;1948;53.250;10.412;2022-12-19T00:27:35;23.40;;;12.70;;
3865;SDS011;1948;53.250;10.412;2022-12-19T00:30:02;30.23;;;12.47;;
3865;SDS011;1948;53.250;10.412;2022-12-19T00:32:31;25.13;;;12.63;;
3865;SDS011;1948;53.250;10.412;2022-12-19T00:34:59;24.23;;;12.13;;
3865;SDS011;1948;53.250;10.412;2022-12-19T00:37:28;22.13;;;12.20;;
3865;SDS011;1948;53.250;10.412;2022-12-19T00:39:55;23.37;;;12.43;;
3865;SDS011;1948;53.250;10.412;2022-12-19T00:42:24;25.50;;;13.20;;
3865;SDS011;1948;53.250;10.412;2022-12-19T00:44:51;27.13;;;13.10;;
3865;SDS011;1948;53.250;10.412;2022-12-19T00:47:19;24.07;;;11.90;;
3865;SDS011;1948;53.250;10.412;2022-12-19T00:49:46;29.57;;;14.20;;
3865;SDS011;1948;53.250;10.412;2022-12-19T00:52:15;30.73;;;12.63;;
3865;SDS011;1948;53.250;10.412;2022-12-19T00:54:46;21.87;;;12.83;;
3865;SDS011;1948;53.250;10.412;2022-12-19T00:57:16;23.07;;;12.30;;
3865;SDS011;1948;53.250;10.412;2022-12-19T00:59:43;27.10;;;13.90;;
3865;SDS011;1948;53.250;10.412;2022-12-19T01:02:12;23.10;;;12.00;;
3865;SDS011;1948;53.250;10.412;2022-12-19T01:04:39;25.77;;;11.40;;
3865;SDS011;1948;53.250;10.412;2022-12-19T01:07:07;27.67;;;13.70;;
3865;SDS011;1948;53.250;10.412;2022-12-19T01:09:34;25.97;;;12.60;;
3865;SDS011;1948;53.250;10.412;2022-12-19T01:12:02;21.30;;;12.23;;
3865;SDS011;1948;53.250;10.412;2022-12-19T01:14:53;22.90;;;12.93;;
3865;SDS011;1948;53.250;10.412;2022-12-19T01:17:30;27.73;;;13.80;;
3865;SDS011;1948;53.250;10.412;2022-12-19T01:20:09;23.00;;;12.30;;
3865;SDS011;1948;53.250;10.412;2022-12-19T01:22:40;25.40;;;12.53;;
3865;SDS011;1948;53.250;10.412;2022-12-19T01:25:07;26.00;;;13.50;;
3865;SDS011;1948;53.250;10.412;2022-12-19T01:27:37;22.37;;;11.87;;
3865;SDS011;1948;53.250;10.412;2022-12-19T01:32:33;25.23;;;12.33;;
3865;SDS011;1948;53.250;10.412;2022-12-19T01:35:04;20.77;;;12.70;;
3865;SDS011;1948;53.250;10.412;2022-12-19T01:37:46;24.23;;;12.30;;
3865;SDS011;1948;53.250;10.412;2022-12-19T01:40:16;22.60;;;12.80;;
3865;SDS011;1948;53.250;10.412;2022-12-19T01:42:45;23.23;;;12.13;;
3865;SDS011;1948;53.250;10.412;2022-12-19T01:47:50;25.10;;;13.03;;
3865;SDS011;1948;53.250;10.412;2022-12-19T01:50:33;23.83;;;11.90;;
3865;SDS011;1948;53.250;10.412;2022-12-19T01:53:27;27.70;;;12.50;;
3865;SDS011;1948;53.250;10.412;2022-12-19T01:56:14;24.80;;;12.53;;
3865;SDS011;1948;53.250;10.412;2022-12-19T01:58:48;25.10;;;12.90;;
3865;SDS011;1948;53.250;10.412;2022-12-19T02:01:31;25.80;;;13.03;;
3865;SDS011;1948;53.250;10.412;2022-12-19T02:04:01;24.93;;;13.13;;
3865;SDS011;1948;53.250;10.412;2022-12-19T02:06:29;20.17;;;12.17;;
3865;SDS011;1948;53.250;10.412;2022-12-19T02:09:00;24.33;;;12.70;;
3865;SDS011;1948;53.250;10.412;2022-12-19T02:11:27;22.60;;;12.73;;
3865;SDS011;1948;53.250;10.412;2022-12-19T02:13:57;28.27;;;13.83;;
3865;SDS011;1948;53.250;10.412;2022-12-19T02:19:29;19.40;;;11.93;;
3865;SDS011;1948;53.250;10.412;2022-12-19T02:22:22;23.60;;;13.10;;
3865;SDS011;1948;53.250;10.412;2022-12-19T02:34:03;25.00;;;12.10;;
3865;SDS011;1948;53.250;10.412;2022-12-19T02:37:10;23.03;;;12.77;;
3865;SDS011;1948;53.250;10.412;2022-12-19T02:42:56;22.90;;;12.50;;
3865;SDS011;1948;53.250;10.412;2022-12-19T02:45:25;24.27;;;12.20;;
3865;SDS011;1948;53.250;10.412;2022-12-19T02:48:03;27.83;;;13.27;;
3865;SDS011;1948;53.250;10.412;2022-12-19T02:50:35;22.27;;;13.77;;
3865;SDS011;1948;53.250;10.412;2022-12-19T02:53:12;23.53;;;12.60;;
3865;SDS011;1948;53.250;10.412;2022-12-19T02:55:43;26.77;;;12.87;;
3865;SDS011;1948;53.250;10.412;2022-12-19T03:07:16;23.20;;;12.63;;
3865;SDS011;1948;53.250;10.412;2022-12-19T03:10:37;20.33;;;11.70;;
3865;SDS011;1948;53.250;10.412;2022-12-19T03:16:07;24.77;;;12.97;;
3865;SDS011;1948;53.250;10.412;2022-12-19T03:18:38;21.87;;;12.43;;
3865;SDS011;1948;53.250;10.412;2022-12-19T03:23:58;24.03;;;12.83;;
3865;SDS011;1948;53.250;10.412;2022-12-19T03:26:30;29.27;;;13.50;;
3865;SDS011;1948;53.250;10.412;2022-12-19T03:29:39;22.20;;;12.43;;
3865;SDS011;1948;53.250;10.412;2022-12-19T03:32:11;20.77;;;11.70;;
3865;SDS011;1948;53.250;10.412;2022-12-19T03:34:47;20.77;;;11.70;;
3865;SDS011;1948;53.250;10.412;2022-12-19T03:37:23;27.80;;;13.07;;
3865;SDS011;1948;53.250;10.412;2022-12-19T03:39:56;22.60;;;12.87;;
3865;SDS011;1948;53.250;10.412;2022-12-19T03:42:29;22.93;;;12.80;;
3865;SDS011;1948;53.250;10.412;2022-12-19T03:45:20;27.83;;;13.17;;
3865;SDS011;1948;53.250;10.412;2022-12-19T03:47:57;24.57;;;12.50;;
3865;SDS011;1948;53.250;10.412;2022-12-19T03:50:31;18.93;;;11.80;;
3865;SDS011;1948;53.250;10.412;2022-12-19T03:59:17;22.00;;;12.77;;
3865;SDS011;1948;53.250;10.412;2022-12-19T04:01:52;24.40;;;12.73;;
3865;SDS011;1948;53.250;10.412;2022-12-19T04:04:24;21.37;;;12.63;;
3865;SDS011;1948;53.250;10.412;2022-12-19T04:06:54;22.87;;;11.60;;
3865;SDS011;1948;53.250;10.412;2022-12-19T04:09:25;22.23;;;12.27;;
3865;SDS011;1948;53.250;10.412;2022-12-19T04:11:54;25.87;;;12.93;;
3865;SDS011;1948;53.250;10.412;2022-12-19T04:14:29;22.90;;;12.80;;
3865;SDS011;1948;53.250;10.412;2022-12-19T04:20:15;22.87;;;12.10;;
3865;SDS011;1948;53.250;10.412;2022-12-19T04:22:48;21.57;;;12.87;;
3865;SDS011;1948;53.250;10.412;2022-12-19T04:25:26;20.50;;;12.47;;
3865;SDS011;1948;53.250;10.412;2022-12-19T04:27:59;18.30;;;11.53;;
3865;SDS011;1948;53.250;10.412;2022-12-19T04:30:38;23.73;;;12.30;;
3865;SDS011;1948;53.250;10.412;2022-12-19T04:33:07;22.73;;;11.70;;
3865;SDS011;1948;53.250;10.412;2022-12-19T04:35:34;21.60;;;12.63;;
3865;SDS011;1948;53.250;10.412;2022-12-19T04:38:03;20.97;;;11.90;;
3865;SDS011;1948;53.250;10.412;2022-12-19T04:40:33;17.60;;;11.40;;
3865;SDS011;1948;53.250;10.412;2022-12-19T04:43:06;23.10;;;13.30;;
3865;SDS011;1948;53.250;10.412;2022-12-19T04:45:34;19.53;;;12.40;;
3865;SDS011;1948;53.250;10.412;2022-12-19T04:48:01;23.80;;;12.20;;
3865;SDS011;1948;53.250;10.412;2022-12-19T04:50:31;21.07;;;11.70;;
3865;SDS011;1948;53.250;10.412;2022-12-19T04:53:01;23.70;;;12.67;;
3865;SDS011;1948;53.250;10.412;2022-12-19T04:55:30;17.50;;;11.53;;
3865;SDS011;1948;53.250;10.412;2022-12-19T04:57:57;19.30;;;12.30;;
3865;SDS011;1948;53.250;10.412;2022-12-19T05:00:30;17.90;;;11.40;;
3865;SDS011;1948;53.250;10.412;2022-12-19T05:02:57;23.57;;;13.10;;
3865;SDS011;1948;53.250;10.412;2022-12-19T05:05:25;23.53;;;13.40;;
3865;SDS011;1948;53.250;10.412;2022-12-19T05:07:52;19.37;;;12.20;;
3865;SDS011;1948;53.250;10.412;2022-12-19T05:10:23;18.80;;;11.70;;
3865;SDS011;1948;53.250;10.412;2022-12-19T05:12:52;20.90;;;12.00;;
3865;SDS011;1948;53.250;10.412;2022-12-19T05:15:19;23.23;;;12.83;;
3865;SDS011;1948;53.250;10.412;2022-12-19T05:17:47;21.40;;;12.70;;
3865;SDS011;1948;53.250;10.412;2022-12-19T05:20:14;15.80;;;11.60;;
3865;SDS011;1948;53.250;10.412;2022-12-19T05:22:41;21.27;;;12.70;;
3865;SDS011;1948;53.250;10.412;2022-12-19T05:25:10;20.63;;;11.77;;
3865;SDS011;1948;53.250;10.412;2022-12-19T05:27:40;24.33;;;13.10;;
3865;SDS011;1948;53.250;10.412;2022-12-19T05:30:07;21.83;;;12.87;;
3865;SDS011;1948;53.250;10.412;2022-12-19T05:32:35;22.70;;;12.47;;
3865;SDS011;1948;53.250;10.412;2022-12-19T05:35:04;21.50;;;12.37;;
3865;SDS011;1948;53.250;10.412;2022-12-19T05:37:33;22.40;;;13.13;;
3865;SDS011;1948;53.250;10.412;2022-12-19T05:40:03;17.33;;;12.00;;
3865;SDS011;1948;53.250;10.412;2022-12-19T05:42:30;19.20;;;11.90;;
3865;SDS011;1948;53.250;10.412;2022-12-19T05:44:57;22.13;;;11.80;;
3865;SDS011;1948;53.250;10.412;2022-12-19T05:47:24;25.17;;;12.27;;
3865;SDS011;1948;53.250;10.412;2022-12-19T05:49:51;18.03;;;11.93;;
3865;SDS011;1948;53.250;10.412;2022-12-19T05:52:21;20.23;;;11.40;;
3865;SDS011;1948;53.250;10.412;2022-12-19T05:54:48;22.07;;;11.13;;
3865;SDS011;1948;53.250;10.412;2022-12-19T05:57:18;20.87;;;11.83;;
3865;SDS011;1948;53.250;10.412;2022-12-19T05:59:45;21.80;;;12.93;;
3865;SDS011;1948;53.250;10.412;2022-12-19T06:02:12;19.60;;;11.27;;
3865;SDS011;1948;53.250;10.412;2022-12-19T06:04:39;15.03;;;10.70;;
3865;SDS011;1948;53.250;10.412;2022-12-19T06:07:06;17.60;;;10.93;;
3865;SDS011;1948;53.250;10.412;2022-12-19T06:09:33;22.13;;;11.77;;
3865;SDS011;1948;53.250;10.412;2022-12-19T06:12:00;16.10;;;11.40;;
3865;SDS011;1948;53.250;10.412;2022-12-19T06:14:29;21.23;;;10.80;;
3865;SDS011;1948;53.250;10.412;2022-12-19T06:16:56;17.23;;;10.97;;
3865;SDS011;1948;53.250;10.412;2022-12-19T06:19:24;17.53;;;11.03;;
3865;SDS011;1948;53.250;10.412;2022-12-19T06:21:55;18.50;;;9.53;;
3865;SDS011;1948;53.250;10.412;2022-12-19T06:24:24;17.40;;;10.13;;
3865;SDS011;1948;53.250;10.412;2022-12-19T06:26:54;18.77;;;10.20;;
3865;SDS011;1948;53.250;10.412;2022-12-19T06:29:21;14.97;;;10.30;;
3865;SDS011;1948;53.250;10.412;2022-12-19T06:31:50;17.10;;;11.57;;
3865;SDS011;1948;53.250;10.412;2022-12-19T06:34:18;14.20;;;10.60;;
3865;SDS011;1948;53.250;10.412;2022-12-19T06:37:05;19.17;;;11.13;;
3865;SDS011;1948;53.250;10.412;2022-12-19T06:39:36;16.73;;;10.27;;
3865;SDS011;1948;53.250;10.412;2022-12-19T06:42:06;14.93;;;10.80;;
3865;SDS011;1948;53.250;10.412;2022-12-19T06:44:53;19.50;;;11.13;;
3865;SDS011;1948;53.250;10.412;2022-12-19T06:47:22;19.80;;;10.83;;
3865;SDS011;1948;53.250;10.412;2022-12-19T06:49:52;13.80;;;10.30;;
3865;SDS011;1948;53.250;10.412;2022-12-19T06:52:19;14.20;;;9.93;;
3865;SDS011;1948;53.250;10.412;2022-12-19T06:54:46;16.53;;;10.73;;
3865;SDS011;1948;53.250;10.412;2022-12-19T06:57:17;16.10;;;10.10;;
3865;SDS011;1948;53.250;10.412;2022-12-19T06:59:44;16.00;;;10.77;;
3865;SDS011;1948;53.250;10.412;2022-12-19T07:02:16;17.33;;;11.07;;
3865;SDS011;1948;53.250;10.412;2022-12-19T07:04:57;17.10;;;11.30;;
3865;SDS011;1948;53.250;10.412;2022-12-19T07:07:31;20.27;;;12.10;;
3865;SDS011;1948;53.250;10.412;2022-12-19T07:10:02;24.07;;;11.77;;
3865;SDS011;1948;53.250;10.412;2022-12-19T07:12:31;20.83;;;11.47;;
3865;SDS011;1948;53.250;10.412;2022-12-19T07:15:00;18.97;;;11.90;;
3865;SDS011;1948;53.250;10.412;2022-12-19T07:17:27;36.70;;;12.73;;
3865;SDS011;1948;53.250;10.412;2022-12-19T07:19:55;14.93;;;10.80;;
3865;SDS011;1948;53.250;10.412;2022-12-19T07:22:24;18.37;;;11.43;;
3865;SDS011;1948;53.250;10.412;2022-12-19T07:24:54;20.17;;;11.73;;
3865;SDS011;1948;53.250;10.412;2022-12-19T07:27:25;17.93;;;11.13;;
3865;SDS011;1948;53.250;10.412;2022-12-19T07:30:00;17.27;;;11.50;;
3865;SDS011;1948;53.250;10.412;2022-12-19T07:32:28;17.90;;;12.00;;
3865;SDS011;1948;53.250;10.412;2022-12-19T07:34:55;20.07;;;11.67;;
3865;SDS011;1948;53.250;10.412;2022-12-19T07:37:22;19.30;;;12.23;;
3865;SDS011;1948;53.250;10.412;2022-12-19T07:39:49;17.53;;;10.37;;
3865;SDS011;1948;53.250;10.412;2022-12-19T07:42:18;17.30;;;11.67;;
3865;SDS011;1948;53.250;10.412;2022-12-19T07:44:48;18.70;;;11.50;;
3865;SDS011;1948;53.250;10.412;2022-12-19T07:47:15;22.17;;;10.90;;
3865;SDS011;1948;53.250;10.412;2022-12-19T07:49:42;21.03;;;12.43;;
3865;SDS011;1948;53.250;10.412;2022-12-19T07:52:09;20.80;;;11.50;;
3865;SDS011;1948;53.250;10.412;2022-12-19T07:54:36;18.70;;;11.70;;
3865;SDS011;1948;53.250;10.412;2022-12-19T07:57:03;21.47;;;12.30;;
3865;SDS011;1948;53.250;10.412;2022-12-19T07:59:30;19.87;;;12.20;;
3865;SDS011;1948;53.250;10.412;2022-12-19T08:02:04;20.57;;;12.87;;
3865;SDS011;1948;53.250;10.412;2022-12-19T08:04:33;21.50;;;12.00;;
3865;SDS011;1948;53.250;10.412;2022-12-19T08:07:05;20.00;;;12.13;;
3865;SDS011;1948;53.250;10.412;2022-12-19T08:09:32;20.73;;;13.13;;
3865;SDS011;1948;53.250;10.412;2022-12-19T08:11:58;21.93;;;12.50;;
3865;SDS011;1948;53.250;10.412;2022-12-19T08:14:26;26.90;;;12.80;;
3865;SDS011;1948;53.250;10.412;2022-12-19T08:16:55;26.27;;;12.97;;
3865;SDS011;1948;53.250;10.412;2022-12-19T08:19:44;21.67;;;12.90;;
3865;SDS011;1948;53.250;10.412;2022-12-19T08:22:12;22.67;;;13.30;;
3865;SDS011;1948;53.250;10.412;2022-12-19T08:24:39;26.60;;;13.47;;
3865;SDS011;1948;53.250;10.412;2022-12-19T08:27:06;20.47;;;12.63;;
3865;SDS011;1948;53.250;10.412;2022-12-19T08:29:32;20.60;;;13.13;;
3865;SDS011;1948;53.250;10.412;2022-12-19T08:32:02;43.67;;;13.90;;
3865;SDS011;1948;53.250;10.412;2022-12-19T08:34:29;21.27;;;12.70;;
3865;SDS011;1948;53.250;10.412;2022-12-19T08:37:01;23.30;;;13.67;;
3865;SDS011;1948;53.250;10.412;2022-12-19T08:39:27;19.40;;;12.13;;
3865;SDS011;1948;53.250;10.412;2022-12-19T08:41:54;23.90;;;13.53;;
3865;SDS011;1948;53.250;10.412;2022-12-19T08:44:22;18.80;;;11.67;;
3865;SDS011;1948;53.250;10.412;2022-12-19T08:46:51;25.57;;;14.47;;
3865;SDS011;1948;53.250;10.412;2022-12-19T08:49:18;21.43;;;13.57;;
3865;SDS011;1948;53.250;10.412;2022-12-19T08:51:50;22.37;;;13.37;;
3865;SDS011;1948;53.250;10.412;2022-12-19T08:54:17;18.33;;;12.30;;
3865;SDS011;1948;53.250;10.412;2022-12-19T08:56:44;21.00;;;13.17;;
3865;SDS011;1948;53.250;10.412;2022-12-19T08:59:13;25.23;;;12.90;;
3865;SDS011;1948;53.250;10.412;2022-12-19T09:01:56;25.27;;;14.47;;
3865;SDS011;1948;53.250;10.412;2022-12-19T09:04:25;21.00;;;13.10;;
3865;SDS011;1948;53.250;10.412;2022-12-19T09:07:15;21.27;;;13.10;;
3865;SDS011;1948;53.250;10.412;2022-12-19T09:09:43;30.03;;;13.67;;
3865;SDS011;1948;53.250;10.412;2022-12-19T09:12:14;25.03;;;13.60;;
3865;SDS011;1948;53.250;10.412;2022-12-19T09:14:42;25.60;;;14.17;;
3865;SDS011;1948;53.250;10.412;2022-12-19T09:17:25;28.43;;;14.30;;
3865;SDS011;1948;53.250;10.412;2022-12-19T09:19:53;22.13;;;12.40;;
3865;SDS011;1948;53.250;10.412;2022-12-19T09:22:20;30.93;;;14.53;;
3865;SDS011;1948;53.250;10.412;2022-12-19T09:24:54;43.30;;;14.53;;
3865;SDS011;1948;53.250;10.412;2022-12-19T09:27:24;35.93;;;14.70;;
3865;SDS011;1948;53.250;10.412;2022-12-19T09:29:51;26.73;;;14.83;;
3865;SDS011;1948;53.250;10.412;2022-12-19T09:32:18;26.07;;;13.87;;
3865;SDS011;1948;53.250;10.412;2022-12-19T09:34:45;23.80;;;14.70;;
3865;SDS011;1948;53.250;10.412;2022-12-19T09:37:12;26.53;;;15.07;;
3865;SDS011;1948;53.250;10.412;2022-12-19T09:39:46;26.13;;;14.80;;
3865;SDS011;1948;53.250;10.412;2022-12-19T09:45:30;25.07;;;15.57;;
3865;SDS011;1948;53.250;10.412;2022-12-19T09:48:12;30.33;;;15.43;;
3865;SDS011;1948;53.250;10.412;2022-12-19T09:51:01;35.57;;;16.30;;
3865;SDS011;1948;53.250;10.412;2022-12-19T09:53:54;32.70;;;15.73;;
3865;SDS011;1948;53.250;10.412;2022-12-19T09:56:33;25.80;;;15.27;;
3865;SDS011;1948;53.250;10.412;2022-12-19T09:59:13;29.03;;;15.20;;
3865;SDS011;1948;53.250;10.412;2022-12-19T10:05:01;34.37;;;16.40;;
3865;SDS011;1948;53.250;10.412;2022-12-19T10:07:55;28.77;;;15.90;;
3865;SDS011;1948;53.250;10.412;2022-12-19T10:20:11;30.87;;;16.03;;
3865;SDS011;1948;53.250;10.412;2022-12-19T10:34:01;30.93;;;17.00;;
3865;SDS011;1948;53.250;10.412;2022-12-19T10:36:55;31.90;;;16.43;;
3865;SDS011;1948;53.250;10.412;2022-12-19T10:39:58;30.97;;;15.87;;
3865;SDS011;1948;53.250;10.412;2022-12-19T10:46:01;32.77;;;17.60;;
3865;SDS011;1948;53.250;10.412;2022-12-19T10:48:42;31.50;;;16.63;;
3865;SDS011;1948;53.250;10.412;2022-12-19T10:51:12;29.13;;;16.13;;
3865;SDS011;1948;53.250;10.412;2022-12-19T10:53:56;31.63;;;16.23;;
3865;SDS011;1948;53.250;10.412;2022-12-19T10:56:26;29.70;;;16.10;;
3865;SDS011;1948;53.250;10.412;2022-12-19T10:59:12;32.07;;;16.40;;
3865;SDS011;1948;53.250;10.412;2022-12-19T11:01:45;40.00;;;18.30;;
3865;SDS011;1948;53.250;10.412;2022-12-19T11:04:28;36.87;;;17.70;;
3865;SDS011;1948;53.250;10.412;2022-12-19T11:12:12;33.97;;;17.43;;
3865;SDS011;1948;53.250;10.412;2022-12-19T11:18:07;31.30;;;17.00;;
3865;SDS011;1948;53.250;10.412;2022-12-19T11:21:16;32.80;;;16.30;;
3865;SDS011;1948;53.250;10.412;2022-12-19T11:24:23;33.93;;;17.50;;
3865;SDS011;1948;53.250;10.412;2022-12-19T11:27:40;37.40;;;18.67;;
3865;SDS011;1948;53.250;10.412;2022-12-19T11:30:33;36.90;;;16.47;;
3865;SDS011;1948;53.250;10.412;2022-12-19T11:33:21;34.63;;;17.20;;
3865;SDS011;1948;53.250;10.412;2022-12-19T11:35:49;36.53;;;17.80;;
3865;SDS011;1948;53.250;10.412;2022-12-19T11:38:38;30.80;;;16.97;;
3865;SDS011;1948;53.250;10.412;2022-12-19T11:41:12;35.67;;;18.07;;
3865;SDS011;1948;53.250;10.412;2022-12-19T11:49:32;33.57;;;17.63;;
3865;SDS011;1948;53.250;10.412;2022-12-19T11:55:25;28.60;;;15.93;;
3865;SDS011;1948;53.250;10.412;2022-12-19T11:58:01;32.60;;;17.63;;
3865;SDS011;1948;53.250;10.412;2022-12-19T12:00:28;36.10;;;17.90;;
3865;SDS011;1948;53.250;10.412;2022-12-19T12:03:17;30.90;;;17.50;;
3865;SDS011;1948;53.250;10.412;2022-12-19T12:06:27;33.13;;;16.33;;
3865;SDS011;1948;53.250;10.412;2022-12-19T12:09:31;33.60;;;16.63;;
3865;SDS011;1948;53.250;10.412;2022-12-19T12:13:26;28.70;;;16.60;;
3865;SDS011;1948;53.250;10.412;2022-12-19T12:16:08;33.83;;;17.03;;
3865;SDS011;1948;53.250;10.412;2022-12-19T12:19:10;33.73;;;18.10;;
3865;SDS011;1948;53.250;10.412;2022-12-19T12:22:39;32.47;;;17.67;;
3865;SDS011;1948;53.250;10.412;2022-12-19T12:32:31;33.60;;;17.20;;
3865;SDS011;1948;53.250;10.412;2022-12-19T12:36:00;23.37;;;14.53;;
3865;SDS011;1948;53.250;10.412;2022-12-19T12:44:40;25.50;;;15.13;;
3865;SDS011;1948;53.250;10.412;2022-12-19T12:50:05;23.37;;;15.43;;
3865;SDS011;1948;53.250;10.412;2022-12-19T12:52:42;21.80;;;14.37;;
3865;SDS011;1948;53.250;10.412;2022-12-19T12:55:34;22.77;;;14.80;;
3865;SDS011;1948;53.250;10.412;2022-12-19T12:58:09;21.40;;;13.43;;
3865;SDS011;1948;53.250;10.412;2022-12-19T13:14:46;23.43;;;14.37;;
3865;SDS011;1948;53.250;10.412;2022-12-19T13:17:23;20.60;;;13.60;;
3865;SDS011;1948;53.250;10.412;2022-12-19T13:23:00;22.40;;;14.60;;
3865;SDS011;1948;53.250;10.412;2022-12-19T13:30:29;23.40;;;14.37;;
3865;SDS011;1948;53.250;10.412;2022-12-19T13:33:20;21.47;;;14.33;;
3865;SDS011;1948;53.250;10.412;2022-12-19T13:35:50;24.33;;;15.70;;
3865;SDS011;1948;53.250;10.412;2022-12-19T13:38:43;28.87;;;15.57;;
3865;SDS011;1948;53.250;10.412;2022-12-19T13:41:39;25.60;;;15.47;;
3865;SDS011;1948;53.250;10.412;2022-12-19T13:44:28;23.30;;;15.10;;
3865;SDS011;1948;53.250;10.412;2022-12-19T13:47:04;26.30;;;16.03;;
3865;SDS011;1948;53.250;10.412;2022-12-19T13:49:32;33.77;;;18.57;;
3865;SDS011;1948;53.250;10.412;2022-12-19T13:52:01;24.77;;;15.47;;
3865;SDS011;1948;53.250;10.412;2022-12-19T13:54:36;24.17;;;15.03;;
3865;SDS011;1948;53.250;10.412;2022-12-19T13:57:20;28.83;;;16.83;;
3865;SDS011;1948;53.250;10.412;2022-12-19T13:59:54;36.40;;;17.10;;
3865;SDS011;1948;53.250;10.412;2022-12-19T14:02:32;25.87;;;16.53;;
3865;SDS011;1948;53.250;10.412;2022-12-19T14:05:24;23.83;;;15.80;;
3865;SDS011;1948;53.250;10.412;2022-12-19T14:08:19;28.53;;;17.00;;
3865;SDS011;1948;53.250;10.412;2022-12-19T14:10:51;30.07;;;17.60;;
3865;SDS011;1948;53.250;10.412;2022-12-19T14:13:50;29.37;;;17.63;;
3865;SDS011;1948;53.250;10.412;2022-12-19T14:16:52;29.70;;;17.10;;
3865;SDS011;1948;53.250;10.412;2022-12-19T14:19:22;35.30;;;19.13;;
3865;SDS011;1948;53.250;10.412;2022-12-19T14:21:54;32.00;;;18.57;;
3865;SDS011;1948;53.250;10.412;2022-12-19T14:25:01;36.00;;;18.90;;
3865;SDS011;1948;53.250;10.412;2022-12-19T14:27:54;36.27;;;18.27;;
3865;SDS011;1948;53.250;10.412;2022-12-19T14:30:52;33.90;;;19.10;;
3865;SDS011;1948;53.250;10.412;2022-12-19T14:33:35;34.40;;;18.80;;
3865;SDS011;1948;53.250;10.412;2022-12-19T14:36:35;36.43;;;19.23;;
3865;SDS011;1948;53.250;10.412;2022-12-19T14:39:15;40.10;;;20.07;;
3865;SDS011;1948;53.250;10.412;2022-12-19T14:41:59;29.93;;;18.13;;
3865;SDS011;1948;53.250;10.412;2022-12-19T14:45:37;34.27;;;19.63;;
3865;SDS011;1948;53.250;10.412;2022-12-19T14:48:33;38.30;;;20.60;;
3865;SDS011;1948;53.250;10.412;2022-12-19T14:51:33;35.93;;;20.43;;
3865;SDS011;1948;53.250;10.412;2022-12-19T14:54:26;35.97;;;19.87;;
3865;SDS011;1948;53.250;10.412;2022-12-19T14:57:18;41.47;;;20.60;;
3865;SDS011;1948;53.250;10.412;2022-12-19T15:03:28;46.63;;;22.27;;
3865;SDS011;1948;53.250;10.412;2022-12-19T15:06:17;36.07;;;20.00;;
3865;SDS011;1948;53.250;10.412;2022-12-19T15:09:06;43.47;;;22.43;;
3865;SDS011;1948;53.250;10.412;2022-12-19T15:12:08;43.37;;;21.57;;
3865;SDS011;1948;53.250;10.412;2022-12-19T15:20:59;43.80;;;22.33;;
3865;SDS011;1948;53.250;10.412;2022-12-19T15:23:33;38.57;;;22.20;;
3865;SDS011;1948;53.250;10.412;2022-12-19T15:26:01;38.67;;;21.37;;
3865;SDS011;1948;53.250;10.412;2022-12-19T15:28:40;42.57;;;22.20;;
3865;SDS011;1948;53.250;10.412;2022-12-19T15:31:26;40.00;;;22.67;;
3865;SDS011;1948;53.250;10.412;2022-12-19T15:37:12;47.20;;;23.30;;
3865;SDS011;1948;53.250;10.412;2022-12-19T15:39:42;46.93;;;22.03;;
3865;SDS011;1948;53.250;10.412;2022-12-19T15:44:48;40.33;;;22.10;;
3865;SDS011;1948;53.250;10.412;2022-12-19T15:47:31;44.20;;;22.60;;
3865;SDS011;1948;53.250;10.412;2022-12-19T15:50:17;45.23;;;22.43;;
3865;SDS011;1948;53.250;10.412;2022-12-19T15:52:47;46.43;;;22.87;;
3865;SDS011;1948;53.250;10.412;2022-12-19T15:55:18;45.73;;;23.30;;
3865;SDS011;1948;53.250;10.412;2022-12-19T15:57:58;39.50;;;20.23;;
3865;SDS011;1948;53.250;10.412;2022-12-19T16:00:30;43.60;;;21.53;;
3865;SDS011;1948;53.250;10.412;2022-12-19T16:03:00;40.47;;;21.60;;
3865;SDS011;1948;53.250;10.412;2022-12-19T16:05:48;41.30;;;22.07;;
3865;SDS011;1948;53.250;10.412;2022-12-19T16:08:16;42.17;;;21.97;;
3865;SDS011;1948;53.250;10.412;2022-12-19T16:10:47;49.70;;;22.20;;
3865;SDS011;1948;53.250;10.412;2022-12-19T16:13:27;41.93;;;21.57;;
3865;SDS011;1948;53.250;10.412;2022-12-19T16:15:59;42.13;;;21.70;;
3865;SDS011;1948;53.250;10.412;2022-12-19T16:18:38;39.40;;;22.20;;
3865;SDS011;1948;53.250;10.412;2022-12-19T16:21:05;44.57;;;23.57;;
3865;SDS011;1948;53.250;10.412;2022-12-19T16:23:32;44.73;;;22.53;;
3865;SDS011;1948;53.250;10.412;2022-12-19T16:25:58;38.30;;;21.70;;
3865;SDS011;1948;53.250;10.412;2022-12-19T16:30:59;41.90;;;22.17;;
3865;SDS011;1948;53.250;10.412;2022-12-19T16:33:39;40.33;;;21.87;;
3865;SDS011;1948;53.250;10.412;2022-12-19T16:36:07;34.97;;;20.97;;
3865;SDS011;1948;53.250;10.412;2022-12-19T16:38:35;42.10;;;23.83;;
3865;SDS011;1948;53.250;10.412;2022-12-19T16:41:02;41.23;;;21.80;;
3865;SDS011;1948;53.250;10.412;2022-12-19T16:45:56;53.83;;;22.83;;
3865;SDS011;1948;53.250;10.412;2022-12-19T16:48:27;46.90;;;21.97;;
3865;SDS011;1948;53.250;10.412;2022-12-19T16:50:59;39.13;;;21.70;;
3865;SDS011;1948;53.250;10.412;2022-12-19T16:53:28;35.27;;;21.20;;
3865;SDS011;1948;53.250;10.412;2022-12-19T16:55:56;33.60;;;19.30;;
3865;SDS011;1948;53.250;10.412;2022-12-19T16:58:28;42.53;;;23.23;;
3865;SDS011;1948;53.250;10.412;2022-12-19T17:00:55;41.67;;;21.40;;
3865;SDS011;1948;53.250;10.412;2022-12-19T17:06:16;39.20;;;21.57;;
3865;SDS011;1948;53.250;10.412;2022-12-19T17:08:46;41.10;;;22.00;;
3865;SDS011;1948;53.250;10.412;2022-12-19T17:13:59;39.67;;;23.03;;
3865;SDS011;1948;53.250;10.412;2022-12-19T17:16:34;40.90;;;21.13;;
3865;SDS011;1948;53.250;10.412;2022-12-19T17:19:04;34.90;;;20.17;;
3865;SDS011;1948;53.250;10.412;2022-12-19T17:21:35;43.77;;;21.80;;
3865;SDS011;1948;53.250;10.412;2022-12-19T17:24:04;40.27;;;20.00;;
3865;SDS011;1948;53.250;10.412;2022-12-19T17:26:41;34.30;;;20.43;;
3865;SDS011;1948;53.250;10.412;2022-12-19T17:29:13;39.10;;;21.73;;
3865;SDS011;1948;53.250;10.412;2022-12-19T17:31:42;42.43;;;21.77;;
3865;SDS011;1948;53.250;10.412;2022-12-19T17:34:15;37.13;;;22.17;;
3865;SDS011;1948;53.250;10.412;2022-12-19T17:36:49;32.67;;;20.57;;
3865;SDS011;1948;53.250;10.412;2022-12-19T17:41:43;41.67;;;21.70;;
3865;SDS011;1948;53.250;10.412;2022-12-19T17:44:10;37.90;;;20.80;;
3865;SDS011;1948;53.250;10.412;2022-12-19T17:46:37;38.30;;;20.77;;
3865;SDS011;1948;53.250;10.412;2022-12-19T17:49:04;36.87;;;18.63;;
3865;SDS011;1948;53.250;10.412;2022-12-19T17:51:31;36.47;;;20.93;;
3865;SDS011;1948;53.250;10.412;2022-12-19T17:53:58;35.40;;;20.53;;
3865;SDS011;1948;53.250;10.412;2022-12-19T17:56:29;37.27;;;21.60;;
3865;SDS011;1948;53.250;10.412;2022-12-19T17:58:55;35.97;;;19.90;;
3865;SDS011;1948;53.250;10.412;2022-12-19T18:01:27;37.37;;;19.87;;